sensor_id;sensor_type;location;lat;lon;timestamp;temperature;humidity
46117;DHT22;32591;48.102;11.772;2023-03-30T00:00:44;10.10;99.90
46117;DHT22;32591;48.102;11.772;2023-03-30T00:03:11;10.00;99.90
46117;DHT22;32591;48.102;11.772;2023-03-30T00:05:38;10.00;99.90
46117;DHT22;32591;48.102;11.772;2023-03-30T00:08:07;10.10;99.90
46117;DHT22;32591;48.102;11.772;2023-03-30T00:10:35;10.10;99.90
46117;DHT22;32591;48.102;11.772;2023-03-30T00:13:03;10.10;99.90
46117;DHT22;32591;48.102;11.772;2023-03-30T00:15:31;10.20;99.90
46117;DHT22;32591;48.102;11.772;2023-03-30T00:17:58;10.20;99.90
46117;DHT22;32591;48.102;11.772;2023-03-30T00:20:26;10.30;99.90
46117;DHT22;32591;48.102;11.772;2023-03-30T00:22:53;10.30;99.90
46117;DHT22;32591;48.102;11.772;2023-03-30T00:25:20;10.20;99.90
46117;DHT22;32591;48.102;11.772;2023-03-30T00:27:47;10.20;99.90
46117;DHT22;32591;48.102;11.772;2023-03-30T00:30:15;10.30;99.90
46117;DHT22;32591;48.102;11.772;2023-03-30T00:32:45;10.30;99.90
46117;DHT22;32591;48.102;11.772;2023-03-30T00:35:12;10.30;99.90
46117;DHT22;32591;48.102;11.772;2023-03-30T00:37:40;10.30;99.90
46117;DHT22;32591;48.102;11.772;2023-03-30T00:40:15;10.20;99.90
46117;DHT22;32591;48.102;11.772;2023-03-30T00:42:44;10.20;99.90
46117;DHT22;32591;48.102;11.772;2023-03-30T00:45:20;10.10;99.90
46117;DHT22;32591;48.102;11.772;2023-03-30T00:47:54;10.20;99.90
46117;DHT22;32591;48.102;11.772;2023-03-30T00:50:27;10.20;99.90
46117;DHT22;32591;48.102;11.772;2023-03-30T00:53:02;10.20;99.90
46117;DHT22;32591;48.102;11.772;2023-03-30T00:55:34;10.30;99.90
46117;DHT22;32591;48.102;11.772;2023-03-30T00:58:03;10.30;99.90
46117;DHT22;32591;48.102;11.772;2023-03-30T01:00:32;10.30;99.90
46117;DHT22;32591;48.102;11.772;2023-03-30T01:03:04;10.40;99.90
46117;DHT22;32591;48.102;11.772;2023-03-30T01:05:36;10.30;99.90
46117;DHT22;32591;48.102;11.772;2023-03-30T01:08:06;10.40;99.90
46117;DHT22;32591;48.102;11.772;2023-03-30T01:10:33;10.30;99.90
46117;DHT22;32591;48.102;11.772;2023-03-30T01:13:01;10.30;99.90
46117;DHT22;32591;48.102;11.772;2023-03-30T01:15:31;10.20;99.90
46117;DHT22;32591;48.102;11.772;2023-03-30T01:18:32;10.30;99.90
46117;DHT22;32591;48.102;11.772;2023-03-30T01:24:47;10.20;99.90
46117;DHT22;32591;48.102;11.772;2023-03-30T01:27:45;10.30;99.90
46117;DHT22;32591;48.102;11.772;2023-03-30T01:30:30;10.30;99.90
46117;DHT22;32591;48.102;11.772;2023-03-30T01:33:28;10.30;99.90
46117;DHT22;32591;48.102;11.772;2023-03-30T01:39:24;10.40;99.90
46117;DHT22;32591;48.102;11.772;2023-03-30T01:41:59;10.40;99.90
46117;DHT22;32591;48.102;11.772;2023-03-30T01:44:39;10.40;99.90
46117;DHT22;32591;48.102;11.772;2023-03-30T01:47:16;10.40;99.90
46117;DHT22;32591;48.102;11.772;2023-03-30T01:49:53;10.40;99.90
46117;DHT22;32591;48.102;11.772;2023-03-30T01:52:25;10.40;99.90
46117;DHT22;32591;48.102;11.772;2023-03-30T01:54:59;10.40;99.90
46117;DHT22;32591;48.102;11.772;2023-03-30T01:57:34;10.40;99.90
46117;DHT22;32591;48.102;11.772;2023-03-30T02:00:09;10.40;99.90
46117;DHT22;32591;48.102;11.772;2023-03-30T02:02:40;10.30;99.90
46117;DHT22;32591;48.102;11.772;2023-03-30T02:05:11;10.30;99.90
46117;DHT22;32591;48.102;11.772;2023-03-30T02:07:43;10.30;99.90
46117;DHT22;32591;48.102;11.772;2023-03-30T02:10:13;10.30;99.90
46117;DHT22;32591;48.102;11.772;2023-03-30T02:12:43;10.40;99.90
46117;DHT22;32591;48.102;11.772;2023-03-30T02:15:11;10.50;99.90
46117;DHT22;32591;48.102;11.772;2023-03-30T02:17:40;10.50;99.90
46117;DHT22;32591;48.102;11.772;2023-03-30T02:20:10;10.50;99.90
46117;DHT22;32591;48.102;11.772;2023-03-30T02:22:38;10.60;99.90
46117;DHT22;32591;48.102;11.772;2023-03-30T02:25:06;10.70;99.90
46117;DHT22;32591;48.102;11.772;2023-03-30T02:27:35;10.70;99.90
46117;DHT22;32591;48.102;11.772;2023-03-30T02:30:03;10.70;99.90
46117;DHT22;32591;48.102;11.772;2023-03-30T02:32:38;10.70;99.90
46117;DHT22;32591;48.102;11.772;2023-03-30T02:35:27;10.70;99.90
46117;DHT22;32591;48.102;11.772;2023-03-30T02:38:28;10.60;99.90
46117;DHT22;32591;48.102;11.772;2023-03-30T02:41:09;10.60;99.90
46117;DHT22;32591;48.102;11.772;2023-03-30T02:43:54;10.50;99.90
46117;DHT22;32591;48.102;11.772;2023-03-30T02:46:37;10.50;99.90
46117;DHT22;32591;48.102;11.772;2023-03-30T02:49:31;10.60;99.90
46117;DHT22;32591;48.102;11.772;2023-03-30T02:52:15;10.60;99.90
46117;DHT22;32591;48.102;11.772;2023-03-30T02:54:51;10.70;99.90
46117;DHT22;32591;48.102;11.772;2023-03-30T02:57:32;10.70;99.90
46117;DHT22;32591;48.102;11.772;2023-03-30T03:00:06;10.80;99.90
46117;DHT22;32591;48.102;11.772;2023-03-30T03:02:38;10.90;99.90
46117;DHT22;32591;48.102;11.772;2023-03-30T03:05:08;11.00;99.90
46117;DHT22;32591;48.102;11.772;2023-03-30T03:07:37;11.10;99.90
46117;DHT22;32591;48.102;11.772;2023-03-30T03:10:06;11.10;99.90
46117;DHT22;32591;48.102;11.772;2023-03-30T03:12:34;11.10;99.90
46117;DHT22;32591;48.102;11.772;2023-03-30T03:15:03;11.20;99.90
46117;DHT22;32591;48.102;11.772;2023-03-30T03:17:31;11.20;99.90
46117;DHT22;32591;48.102;11.772;2023-03-30T03:19:59;11.30;99.90
46117;DHT22;32591;48.102;11.772;2023-03-30T03:22:26;11.40;99.90
46117;DHT22;32591;48.102;11.772;2023-03-30T03:24:53;11.40;99.90
46117;DHT22;32591;48.102;11.772;2023-03-30T03:27:20;11.30;99.90
46117;DHT22;32591;48.102;11.772;2023-03-30T03:29:47;11.30;99.90
46117;DHT22;32591;48.102;11.772;2023-03-30T03:32:16;11.30;99.90
46117;DHT22;32591;48.102;11.772;2023-03-30T03:34:42;11.30;99.90
46117;DHT22;32591;48.102;11.772;2023-03-30T03:37:10;11.30;99.90
46117;DHT22;32591;48.102;11.772;2023-03-30T03:39:37;11.40;99.90
46117;DHT22;32591;48.102;11.772;2023-03-30T03:42:05;11.40;99.90
46117;DHT22;32591;48.102;11.772;2023-03-30T03:44:32;11.50;99.90
46117;DHT22;32591;48.102;11.772;2023-03-30T03:46:59;11.50;99.90
46117;DHT22;32591;48.102;11.772;2023-03-30T03:49:27;11.50;99.90
46117;DHT22;32591;48.102;11.772;2023-03-30T03:51:54;11.50;99.90
46117;DHT22;32591;48.102;11.772;2023-03-30T03:54:21;11.50;99.90
46117;DHT22;32591;48.102;11.772;2023-03-30T03:56:48;11.50;99.90
46117;DHT22;32591;48.102;11.772;2023-03-30T03:59:16;11.50;99.90
46117;DHT22;32591;48.102;11.772;2023-03-30T04:01:43;11.40;99.90
46117;DHT22;32591;48.102;11.772;2023-03-30T04:04:10;11.40;99.90
46117;DHT22;32591;48.102;11.772;2023-03-30T04:06:38;11.30;99.90
46117;DHT22;32591;48.102;11.772;2023-03-30T04:09:05;11.40;99.90
46117;DHT22;32591;48.102;11.772;2023-03-30T04:11:32;11.30;99.90
46117;DHT22;32591;48.102;11.772;2023-03-30T04:13:59;11.20;99.90
46117;DHT22;32591;48.102;11.772;2023-03-30T04:16:26;11.20;99.90
46117;DHT22;32591;48.102;11.772;2023-03-30T04:18:53;11.10;99.90
46117;DHT22;32591;48.102;11.772;2023-03-30T04:21:22;11.10;99.90
46117;DHT22;32591;48.102;11.772;2023-03-30T04:23:51;11.00;99.90
46117;DHT22;32591;48.102;11.772;2023-03-30T04:26:18;11.00;99.90
46117;DHT22;32591;48.102;11.772;2023-03-30T04:28:45;10.90;99.90
46117;DHT22;32591;48.102;11.772;2023-03-30T04:31:12;11.00;99.90
46117;DHT22;32591;48.102;11.772;2023-03-30T04:33:40;11.00;99.90
46117;DHT22;32591;48.102;11.772;2023-03-30T04:36:15;11.10;99.90
46117;DHT22;32591;48.102;11.772;2023-03-30T04:38:43;11.10;99.90
46117;DHT22;32591;48.102;11.772;2023-03-30T04:41:25;11.10;99.90
46117;DHT22;32591;48.102;11.772;2023-03-30T04:43:58;11.20;99.90
46117;DHT22;32591;48.102;11.772;2023-03-30T04:46:26;11.10;99.90
46117;DHT22;32591;48.102;11.772;2023-03-30T04:48:53;10.90;99.90
46117;DHT22;32591;48.102;11.772;2023-03-30T04:51:21;11.00;99.90
46117;DHT22;32591;48.102;11.772;2023-03-30T04:53:48;11.00;99.90
46117;DHT22;32591;48.102;11.772;2023-03-30T04:56:15;10.90;99.90
46117;DHT22;32591;48.102;11.772;2023-03-30T04:58:44;10.90;99.90
46117;DHT22;32591;48.102;11.772;2023-03-30T05:01:11;10.80;99.90
46117;DHT22;32591;48.102;11.772;2023-03-30T05:03:38;10.80;99.90
46117;DHT22;32591;48.102;11.772;2023-03-30T05:06:06;10.80;99.90
46117;DHT22;32591;48.102;11.772;2023-03-30T05:08:33;10.70;99.90
46117;DHT22;32591;48.102;11.772;2023-03-30T05:11:01;10.60;99.90
46117;DHT22;32591;48.102;11.772;2023-03-30T05:13:29;10.60;99.90
46117;DHT22;32591;48.102;11.772;2023-03-30T05:15:58;10.60;99.90
46117;DHT22;32591;48.102;11.772;2023-03-30T05:18:24;10.70;99.90
46117;DHT22;32591;48.102;11.772;2023-03-30T05:20:55;10.70;99.90
46117;DHT22;32591;48.102;11.772;2023-03-30T05:23:23;10.70;99.90
46117;DHT22;32591;48.102;11.772;2023-03-30T05:25:51;10.80;99.90
46117;DHT22;32591;48.102;11.772;2023-03-30T05:28:20;10.70;99.90
46117;DHT22;32591;48.102;11.772;2023-03-30T05:30:52;10.70;99.90
46117;DHT22;32591;48.102;11.772;2023-03-30T05:33:21;10.70;99.90
46117;DHT22;32591;48.102;11.772;2023-03-30T05:35:49;10.80;99.90
46117;DHT22;32591;48.102;11.772;2023-03-30T05:38:16;10.90;99.90
46117;DHT22;32591;48.102;11.772;2023-03-30T05:40:43;10.90;99.90
46117;DHT22;32591;48.102;11.772;2023-03-30T05:43:10;10.90;99.90
46117;DHT22;32591;48.102;11.772;2023-03-30T05:45:37;10.90;99.90
46117;DHT22;32591;48.102;11.772;2023-03-30T05:48:05;10.90;99.90
46117;DHT22;32591;48.102;11.772;2023-03-30T05:50:33;10.90;99.90
46117;DHT22;32591;48.102;11.772;2023-03-30T05:53:00;10.90;99.90
46117;DHT22;32591;48.102;11.772;2023-03-30T05:55:27;11.10;99.90
46117;DHT22;32591;48.102;11.772;2023-03-30T05:57:54;11.10;99.90
46117;DHT22;32591;48.102;11.772;2023-03-30T06:00:22;11.10;99.90
46117;DHT22;32591;48.102;11.772;2023-03-30T06:02:50;11.10;99.90
46117;DHT22;32591;48.102;11.772;2023-03-30T06:05:18;10.90;99.90
46117;DHT22;32591;48.102;11.772;2023-03-30T06:07:46;11.00;99.90
46117;DHT22;32591;48.102;11.772;2023-03-30T06:10:14;11.00;99.90
46117;DHT22;32591;48.102;11.772;2023-03-30T06:12:42;11.00;99.90
46117;DHT22;32591;48.102;11.772;2023-03-30T06:15:09;11.00;99.90
46117;DHT22;32591;48.102;11.772;2023-03-30T06:17:37;11.10;99.90
46117;DHT22;32591;48.102;11.772;2023-03-30T06:20:05;11.00;99.90
46117;DHT22;32591;48.102;11.772;2023-03-30T06:22:36;11.00;99.90
46117;DHT22;32591;48.102;11.772;2023-03-30T06:25:06;11.00;99.90
46117;DHT22;32591;48.102;11.772;2023-03-30T06:27:34;11.00;99.90
46117;DHT22;32591;48.102;11.772;2023-03-30T06:30:02;11.00;99.90
46117;DHT22;32591;48.102;11.772;2023-03-30T06:32:30;11.10;99.90
46117;DHT22;32591;48.102;11.772;2023-03-30T06:34:57;11.20;99.90
46117;DHT22;32591;48.102;11.772;2023-03-30T06:37:23;11.20;99.90
46117;DHT22;32591;48.102;11.772;2023-03-30T06:39:51;11.30;99.90
46117;DHT22;32591;48.102;11.772;2023-03-30T06:42:19;11.40;99.90
46117;DHT22;32591;48.102;11.772;2023-03-30T06:44:46;11.30;99.90
46117;DHT22;32591;48.102;11.772;2023-03-30T06:47:13;11.20;99.90
46117;DHT22;32591;48.102;11.772;2023-03-30T06:49:40;11.20;99.90
46117;DHT22;32591;48.102;11.772;2023-03-30T06:52:07;11.20;99.90
46117;DHT22;32591;48.102;11.772;2023-03-30T06:54:34;11.10;99.90
46117;DHT22;32591;48.102;11.772;2023-03-30T06:57:01;11.20;99.90
46117;DHT22;32591;48.102;11.772;2023-03-30T06:59:29;11.20;99.90
46117;DHT22;32591;48.102;11.772;2023-03-30T07:01:58;11.20;99.90
46117;DHT22;32591;48.102;11.772;2023-03-30T07:04:25;11.10;99.90
46117;DHT22;32591;48.102;11.772;2023-03-30T07:06:52;11.10;99.90
46117;DHT22;32591;48.102;11.772;2023-03-30T07:09:22;11.10;99.90
46117;DHT22;32591;48.102;11.772;2023-03-30T07:11:49;11.10;99.90
46117;DHT22;32591;48.102;11.772;2023-03-30T07:14:16;11.10;99.90
46117;DHT22;32591;48.102;11.772;2023-03-30T07:16:44;11.10;99.90
46117;DHT22;32591;48.102;11.772;2023-03-30T07:19:12;11.00;99.90
46117;DHT22;32591;48.102;11.772;2023-03-30T07:21:40;11.10;99.90
46117;DHT22;32591;48.102;11.772;2023-03-30T07:24:07;11.00;99.90
46117;DHT22;32591;48.102;11.772;2023-03-30T07:26:33;11.10;99.90
46117;DHT22;32591;48.102;11.772;2023-03-30T07:29:01;11.20;99.90
46117;DHT22;32591;48.102;11.772;2023-03-30T07:31:29;11.20;99.90
46117;DHT22;32591;48.102;11.772;2023-03-30T07:33:58;11.20;99.90
46117;DHT22;32591;48.102;11.772;2023-03-30T07:36:24;11.20;99.90
46117;DHT22;32591;48.102;11.772;2023-03-30T07:38:51;11.30;99.90
46117;DHT22;32591;48.102;11.772;2023-03-30T07:41:18;11.40;99.90
46117;DHT22;32591;48.102;11.772;2023-03-30T07:43:45;11.50;99.90
46117;DHT22;32591;48.102;11.772;2023-03-30T07:46:12;11.50;99.90
46117;DHT22;32591;48.102;11.772;2023-03-30T07:48:40;11.60;99.90
46117;DHT22;32591;48.102;11.772;2023-03-30T07:51:10;11.70;99.90
46117;DHT22;32591;48.102;11.772;2023-03-30T07:53:38;11.70;99.90
46117;DHT22;32591;48.102;11.772;2023-03-30T07:56:06;11.70;99.90
46117;DHT22;32591;48.102;11.772;2023-03-30T07:58:33;11.60;99.90
46117;DHT22;32591;48.102;11.772;2023-03-30T08:01:00;11.60;99.90
46117;DHT22;32591;48.102;11.772;2023-03-30T08:03:29;11.60;99.90
46117;DHT22;32591;48.102;11.772;2023-03-30T08:05:59;11.70;99.90
46117;DHT22;32591;48.102;11.772;2023-03-30T08:08:31;11.60;99.90
46117;DHT22;32591;48.102;11.772;2023-03-30T08:10:58;11.70;99.90
46117;DHT22;32591;48.102;11.772;2023-03-30T08:13:25;11.80;99.90
46117;DHT22;32591;48.102;11.772;2023-03-30T08:15:52;11.80;99.90
46117;DHT22;32591;48.102;11.772;2023-03-30T08:18:20;11.90;99.90
46117;DHT22;32591;48.102;11.772;2023-03-30T08:20:49;11.90;99.90
46117;DHT22;32591;48.102;11.772;2023-03-30T08:23:17;12.00;99.90
46117;DHT22;32591;48.102;11.772;2023-03-30T08:25:47;12.00;99.90
46117;DHT22;32591;48.102;11.772;2023-03-30T08:28:18;12.10;99.90
46117;DHT22;32591;48.102;11.772;2023-03-30T08:30:45;12.10;99.90
46117;DHT22;32591;48.102;11.772;2023-03-30T08:33:12;12.20;99.90
46117;DHT22;32591;48.102;11.772;2023-03-30T08:35:42;12.10;99.90
46117;DHT22;32591;48.102;11.772;2023-03-30T08:38:10;12.30;99.90
46117;DHT22;32591;48.102;11.772;2023-03-30T08:40:42;12.40;99.90
46117;DHT22;32591;48.102;11.772;2023-03-30T08:45:59;12.60;99.90
46117;DHT22;32591;48.102;11.772;2023-03-30T08:48:29;12.70;99.90
46117;DHT22;32591;48.102;11.772;2023-03-30T08:51:07;12.80;99.90
46117;DHT22;32591;48.102;11.772;2023-03-30T08:53:40;12.80;99.90
46117;DHT22;32591;48.102;11.772;2023-03-30T08:56:09;12.70;99.90
46117;DHT22;32591;48.102;11.772;2023-03-30T08:58:44;12.80;99.90
46117;DHT22;32591;48.102;11.772;2023-03-30T09:01:19;12.70;99.90
46117;DHT22;32591;48.102;11.772;2023-03-30T09:04:06;12.60;99.90
46117;DHT22;32591;48.102;11.772;2023-03-30T09:06:39;12.50;99.90
46117;DHT22;32591;48.102;11.772;2023-03-30T09:09:13;12.50;99.90
46117;DHT22;32591;48.102;11.772;2023-03-30T09:11:43;12.50;99.90
46117;DHT22;32591;48.102;11.772;2023-03-30T09:14:17;12.50;99.90
46117;DHT22;32591;48.102;11.772;2023-03-30T09:16:51;12.60;99.90
46117;DHT22;32591;48.102;11.772;2023-03-30T09:19:26;12.70;99.90
46117;DHT22;32591;48.102;11.772;2023-03-30T09:21:58;12.80;99.90
46117;DHT22;32591;48.102;11.772;2023-03-30T09:24:25;12.80;99.90
46117;DHT22;32591;48.102;11.772;2023-03-30T09:26:58;12.90;99.90
46117;DHT22;32591;48.102;11.772;2023-03-30T09:29:33;13.00;99.90
46117;DHT22;32591;48.102;11.772;2023-03-30T09:32:12;13.10;99.90
46117;DHT22;32591;48.102;11.772;2023-03-30T09:34:45;13.20;99.90
46117;DHT22;32591;48.102;11.772;2023-03-30T09:37:15;13.20;99.90
46117;DHT22;32591;48.102;11.772;2023-03-30T09:39:44;13.40;99.90
46117;DHT22;32591;48.102;11.772;2023-03-30T09:42:21;13.50;99.90
46117;DHT22;32591;48.102;11.772;2023-03-30T09:44:59;13.70;99.90
46117;DHT22;32591;48.102;11.772;2023-03-30T09:47:33;13.80;99.90
46117;DHT22;32591;48.102;11.772;2023-03-30T09:50:05;14.00;99.90
46117;DHT22;32591;48.102;11.772;2023-03-30T09:52:35;14.20;99.90
46117;DHT22;32591;48.102;11.772;2023-03-30T09:55:25;14.20;99.90
46117;DHT22;32591;48.102;11.772;2023-03-30T09:57:53;14.30;99.90
46117;DHT22;32591;48.102;11.772;2023-03-30T10:00:38;14.50;99.90
46117;DHT22;32591;48.102;11.772;2023-03-30T10:03:06;14.70;99.90
46117;DHT22;32591;48.102;11.772;2023-03-30T10:05:35;14.80;99.90
46117;DHT22;32591;48.102;11.772;2023-03-30T10:08:05;14.90;99.90
46117;DHT22;32591;48.102;11.772;2023-03-30T10:10:38;15.00;99.90
46117;DHT22;32591;48.102;11.772;2023-03-30T10:13:10;15.10;99.90
46117;DHT22;32591;48.102;11.772;2023-03-30T10:15:42;15.20;99.90
46117;DHT22;32591;48.102;11.772;2023-03-30T10:18:22;15.30;99.90
46117;DHT22;32591;48.102;11.772;2023-03-30T10:20:53;15.50;99.90
46117;DHT22;32591;48.102;11.772;2023-03-30T10:23:21;15.50;99.90
46117;DHT22;32591;48.102;11.772;2023-03-30T10:26:00;15.60;99.90
46117;DHT22;32591;48.102;11.772;2023-03-30T10:28:30;15.90;99.90
46117;DHT22;32591;48.102;11.772;2023-03-30T10:31:02;16.10;99.90
46117;DHT22;32591;48.102;11.772;2023-03-30T10:33:37;16.20;99.90
46117;DHT22;32591;48.102;11.772;2023-03-30T10:36:06;16.30;99.90
46117;DHT22;32591;48.102;11.772;2023-03-30T10:38:34;16.30;99.90
46117;DHT22;32591;48.102;11.772;2023-03-30T10:41:07;16.50;99.90
46117;DHT22;32591;48.102;11.772;2023-03-30T10:43:35;16.40;99.90
46117;DHT22;32591;48.102;11.772;2023-03-30T10:46:10;16.50;99.90
46117;DHT22;32591;48.102;11.772;2023-03-30T10:48:57;16.50;99.90
46117;DHT22;32591;48.102;11.772;2023-03-30T10:51:35;16.50;99.90
46117;DHT22;32591;48.102;11.772;2023-03-30T10:54:12;16.40;99.90
46117;DHT22;32591;48.102;11.772;2023-03-30T10:56:44;16.40;99.90
46117;DHT22;32591;48.102;11.772;2023-03-30T10:59:40;16.30;99.90
46117;DHT22;32591;48.102;11.772;2023-03-30T11:02:27;16.20;99.90
46117;DHT22;32591;48.102;11.772;2023-03-30T11:05:03;16.20;99.90
46117;DHT22;32591;48.102;11.772;2023-03-30T11:07:37;16.20;99.90
46117;DHT22;32591;48.102;11.772;2023-03-30T11:10:12;16.00;99.90
46117;DHT22;32591;48.102;11.772;2023-03-30T11:12:45;15.90;99.90
46117;DHT22;32591;48.102;11.772;2023-03-30T11:15:17;15.70;99.90
46117;DHT22;32591;48.102;11.772;2023-03-30T11:17:54;15.50;99.90
46117;DHT22;32591;48.102;11.772;2023-03-30T11:20:29;15.30;99.90
46117;DHT22;32591;48.102;11.772;2023-03-30T11:23:07;15.20;99.90
46117;DHT22;32591;48.102;11.772;2023-03-30T11:25:44;15.00;99.90
46117;DHT22;32591;48.102;11.772;2023-03-30T11:28:21;14.80;99.90
46117;DHT22;32591;48.102;11.772;2023-03-30T11:30:58;14.70;99.90
46117;DHT22;32591;48.102;11.772;2023-03-30T11:33:35;14.50;99.90
46117;DHT22;32591;48.102;11.772;2023-03-30T11:36:09;14.40;99.90
46117;DHT22;32591;48.102;11.772;2023-03-30T11:38:45;14.30;99.90
46117;DHT22;32591;48.102;11.772;2023-03-30T11:41:16;14.20;99.90
46117;DHT22;32591;48.102;11.772;2023-03-30T11:43:48;14.20;99.90
46117;DHT22;32591;48.102;11.772;2023-03-30T11:46:18;14.00;99.90
46117;DHT22;32591;48.102;11.772;2023-03-30T11:49:11;13.90;99.90
46117;DHT22;32591;48.102;11.772;2023-03-30T11:52:19;13.80;99.90
46117;DHT22;32591;48.102;11.772;2023-03-30T11:55:10;13.60;99.90
46117;DHT22;32591;48.102;11.772;2023-03-30T11:57:51;13.30;99.90
46117;DHT22;32591;48.102;11.772;2023-03-30T12:00:34;13.20;99.90
46117;DHT22;32591;48.102;11.772;2023-03-30T12:03:19;13.10;99.90
46117;DHT22;32591;48.102;11.772;2023-03-30T12:06:02;13.00;99.90
46117;DHT22;32591;48.102;11.772;2023-03-30T12:08:47;13.00;99.90
46117;DHT22;32591;48.102;11.772;2023-03-30T12:11:30;12.80;99.90
46117;DHT22;32591;48.102;11.772;2023-03-30T12:14:01;12.70;99.90
46117;DHT22;32591;48.102;11.772;2023-03-30T12:16:32;12.60;99.90
46117;DHT22;32591;48.102;11.772;2023-03-30T12:19:06;12.30;99.90
46117;DHT22;32591;48.102;11.772;2023-03-30T12:21:42;12.10;99.90
46117;DHT22;32591;48.102;11.772;2023-03-30T12:24:15;11.90;99.90
46117;DHT22;32591;48.102;11.772;2023-03-30T12:26:44;11.60;99.90
46117;DHT22;32591;48.102;11.772;2023-03-30T12:29:14;11.50;99.90
46117;DHT22;32591;48.102;11.772;2023-03-30T12:32:05;11.40;99.90
46117;DHT22;32591;48.102;11.772;2023-03-30T12:34:34;11.50;99.90
46117;DHT22;32591;48.102;11.772;2023-03-30T12:37:06;11.30;99.90
46117;DHT22;32591;48.102;11.772;2023-03-30T12:39:39;11.30;99.90
46117;DHT22;32591;48.102;11.772;2023-03-30T12:42:16;11.20;99.90
46117;DHT22;32591;48.102;11.772;2023-03-30T12:45:08;11.00;99.90
46117;DHT22;32591;48.102;11.772;2023-03-30T12:47:56;11.00;99.90
46117;DHT22;32591;48.102;11.772;2023-03-30T12:50:36;11.00;99.90
46117;DHT22;32591;48.102;11.772;2023-03-30T12:53:43;10.90;99.90
46117;DHT22;32591;48.102;11.772;2023-03-30T12:56:26;11.00;99.90
46117;DHT22;32591;48.102;11.772;2023-03-30T12:59:19;11.00;99.90
46117;DHT22;32591;48.102;11.772;2023-03-30T13:05:01;11.10;99.90
46117;DHT22;32591;48.102;11.772;2023-03-30T13:07:30;11.10;99.90
46117;DHT22;32591;48.102;11.772;2023-03-30T13:10:05;11.00;99.90
46117;DHT22;32591;48.102;11.772;2023-03-30T13:13:03;11.10;99.90
46117;DHT22;32591;48.102;11.772;2023-03-30T13:15:40;11.10;99.90
46117;DHT22;32591;48.102;11.772;2023-03-30T13:21:22;11.00;99.90
46117;DHT22;32591;48.102;11.772;2023-03-30T13:27:21;10.80;99.90
46117;DHT22;32591;48.102;11.772;2023-03-30T13:29:54;10.80;99.90
46117;DHT22;32591;48.102;11.772;2023-03-30T13:35:30;10.80;99.90
46117;DHT22;32591;48.102;11.772;2023-03-30T13:41:14;10.90;99.90
46117;DHT22;32591;48.102;11.772;2023-03-30T13:43:58;11.00;99.90
46117;DHT22;32591;48.102;11.772;2023-03-30T13:46:37;10.90;99.90
46117;DHT22;32591;48.102;11.772;2023-03-30T13:49:21;10.90;99.90
46117;DHT22;32591;48.102;11.772;2023-03-30T13:52:00;11.00;99.90
46117;DHT22;32591;48.102;11.772;2023-03-30T13:54:31;11.30;99.90
46117;DHT22;32591;48.102;11.772;2023-03-30T13:57:02;10.90;99.90
46117;DHT22;32591;48.102;11.772;2023-03-30T13:59:34;11.00;99.90
46117;DHT22;32591;48.102;11.772;2023-03-30T14:02:04;11.00;99.90
46117;DHT22;32591;48.102;11.772;2023-03-30T14:04:33;11.10;99.90
46117;DHT22;32591;48.102;11.772;2023-03-30T14:07:14;11.00;99.90
46117;DHT22;32591;48.102;11.772;2023-03-30T14:09:43;11.00;99.90
46117;DHT22;32591;48.102;11.772;2023-03-30T14:12:11;11.00;99.90
46117;DHT22;32591;48.102;11.772;2023-03-30T14:14:42;11.00;99.90
46117;DHT22;32591;48.102;11.772;2023-03-30T14:17:14;11.10;99.90
46117;DHT22;32591;48.102;11.772;2023-03-30T14:19:53;11.10;99.90
46117;DHT22;32591;48.102;11.772;2023-03-30T14:22:29;11.10;99.90
46117;DHT22;32591;48.102;11.772;2023-03-30T14:24:59;11.10;99.90
46117;DHT22;32591;48.102;11.772;2023-03-30T14:27:32;11.20;99.90
46117;DHT22;32591;48.102;11.772;2023-03-30T14:30:02;11.10;99.90
46117;DHT22;32591;48.102;11.772;2023-03-30T14:32:40;11.20;99.90
46117;DHT22;32591;48.102;11.772;2023-03-30T14:35:07;11.20;99.90
46117;DHT22;32591;48.102;11.772;2023-03-30T14:37:34;11.10;99.90
46117;DHT22;32591;48.102;11.772;2023-03-30T14:40:01;11.10;99.90
46117;DHT22;32591;48.102;11.772;2023-03-30T14:42:33;11.10;99.90
46117;DHT22;32591;48.102;11.772;2023-03-30T14:45:02;11.10;99.90
46117;DHT22;32591;48.102;11.772;2023-03-30T14:47:29;11.20;99.90
46117;DHT22;32591;48.102;11.772;2023-03-30T14:49:58;11.10;99.90
46117;DHT22;32591;48.102;11.772;2023-03-30T14:52:31;11.20;99.90
46117;DHT22;32591;48.102;11.772;2023-03-30T14:54:59;11.20;99.90
46117;DHT22;32591;48.102;11.772;2023-03-30T14:57:26;11.30;99.90
46117;DHT22;32591;48.102;11.772;2023-03-30T14:59:57;11.20;99.90
46117;DHT22;32591;48.102;11.772;2023-03-30T15:02:28;11.20;99.90
46117;DHT22;32591;48.102;11.772;2023-03-30T15:04:57;11.20;99.90
46117;DHT22;32591;48.102;11.772;2023-03-30T15:07:28;11.20;99.90
46117;DHT22;32591;48.102;11.772;2023-03-30T15:09:58;11.30;99.90
46117;DHT22;32591;48.102;11.772;2023-03-30T15:12:30;11.30;99.90
46117;DHT22;32591;48.102;11.772;2023-03-30T15:15:01;11.30;99.90
46117;DHT22;32591;48.102;11.772;2023-03-30T15:17:31;11.30;99.90
46117;DHT22;32591;48.102;11.772;2023-03-30T15:20:00;11.40;99.90
46117;DHT22;32591;48.102;11.772;2023-03-30T15:22:32;11.40;99.90
46117;DHT22;32591;48.102;11.772;2023-03-30T15:25:05;11.30;99.90
46117;DHT22;32591;48.102;11.772;2023-03-30T15:27:36;11.30;99.90
46117;DHT22;32591;48.102;11.772;2023-03-30T15:30:05;11.30;99.90
46117;DHT22;32591;48.102;11.772;2023-03-30T15:32:38;11.40;99.90
46117;DHT22;32591;48.102;11.772;2023-03-30T15:35:19;11.40;99.90
46117;DHT22;32591;48.102;11.772;2023-03-30T15:37:55;11.40;99.90
46117;DHT22;32591;48.102;11.772;2023-03-30T15:40:29;11.40;99.90
46117;DHT22;32591;48.102;11.772;2023-03-30T15:43:12;11.40;99.90
46117;DHT22;32591;48.102;11.772;2023-03-30T15:45:42;11.40;99.90
46117;DHT22;32591;48.102;11.772;2023-03-30T15:48:17;11.30;99.90
46117;DHT22;32591;48.102;11.772;2023-03-30T15:50:50;11.30;99.90
46117;DHT22;32591;48.102;11.772;2023-03-30T15:53:31;11.40;99.90
46117;DHT22;32591;48.102;11.772;2023-03-30T15:56:09;11.30;99.90
46117;DHT22;32591;48.102;11.772;2023-03-30T15:58:38;11.30;99.90
46117;DHT22;32591;48.102;11.772;2023-03-30T16:01:09;11.30;99.90
46117;DHT22;32591;48.102;11.772;2023-03-30T16:03:49;11.30;99.90
46117;DHT22;32591;48.102;11.772;2023-03-30T16:06:19;11.30;99.90
46117;DHT22;32591;48.102;11.772;2023-03-30T16:08:47;11.30;99.90
46117;DHT22;32591;48.102;11.772;2023-03-30T16:11:14;11.20;99.90